Overview Statistics Trail Chart Weather Telemetry Raw packets
 

This is the latest recevied weather packets stored in our database for station/object IQ5VK-13. If no packets are shown the sender has not sent any weather packets the latest 10 day(s).

<< 5 6 7 8 9 10 11 >>
Time Temp. Humidity Pressure Rain* Wind** Luminosity Snow
1788348764 26.11° C 49% 1023.5 hPa - - - -
1788347567 25.56° C 49% 1023.6 hPa - - - -
1788346363 25.56° C 47% 1023.6 hPa - - - -
1788345162 25.56° C 44% 1023.8 hPa - - - -
1788343962 25.56° C 44% 1023.8 hPa - - - -
1788342762 25° C 44% 1023.9 hPa - - - -
1788341562 25° C 48% 1023.9 hPa - - - -
1788339161 23.89° C 51% 1023.8 hPa - - - -
1788335560 22.78° C 60% 1023.4 hPa - - - -
1788334360 21.67° C 63% 1023.3 hPa - - - -
1788333160 21.11° C 64% 1023 hPa - - - -
1788331959 20.56° C 68% 1022.9 hPa - - - -
1788329564 20° C 72% 1022.8 hPa - - - -
1788327164 17.78° C 82% 1022.5 hPa - - - -
1788325963 17.78° C 87% 1022.7 hPa - - - -
1788322363 17.78° C 86% 1022.5 hPa - - - -
1788321162 17.78° C 86% 1022.4 hPa - - - -
1788320219 18.33° C 84% 1022.5 hPa - - - -
1788319962 18.33° C 84% 1022.5 hPa - - - -
1788318761 17.78° C 79% 1022.6 hPa - - - -
1788317561 18.33° C 76% 1022.5 hPa - - - -
1788316361 18.33° C 70% 1022.5 hPa - - - -
1788315160 18.33° C 68% 1022.5 hPa - - - -
1788313960 18.89° C 68% 1022.5 hPa - - - -
1788312760 18.89° C 64% 1022.4 hPa - - - -

* Rain since midnight (hover to see other rain measurements)
** Current wind speed in m/s (hover to see current wind gust speed)